メインページ
METAR-TAF:

METAR-TAF

空港 :

マプト国際空港

マプト, モザンビーク

緯度: 25-55S, 経度: 032-34E, 海抜: 39m

現時点の気象観測

当レポートは1時間10分前の11:00(UTC)に作成
東/南東の風 10kt
気温 28°C
湿度 51%
気圧 1017 hPa
視程10km以上
高度2000ftの雲はほとんどない

METAR: FQMA 161100Z 11010KT 9999 FEW020 28/17 Q1017 NOSIG

時間: 14:10 (12:10 UTC)

予報

当レポートは8時間10分前の04:00(UTC)に作成
予報は16日の 06時(UTC)から 17日の 12時(UTC)まで有効
東/南東の風 12kt
視程10km以上
高度2500ftの雲は散在している
16日の 18時(UTC)から 16日の 20時(UTC)まで徐々に
の風 8kt
高度2000ftの千切れ雲あり
17日の 06時(UTC)から 17日の 08時(UTC)まで徐々に
の風 12kt
高度1500ftの雲は散在している

TAF: FQMA 160400Z 1606/1712 12012KT 9999 SCT025 BECMG 1618/1620 09008KT BKN020 BECMG 1706/1708 19012KT SCT015 TX28/1613Z TN19/1703Z

4,000以上の空港の気象観測と天気予報(METAR報とTAF報)

利用可能な観測所は地図上に黄色い丸と赤い丸で示す。

丸の上にカーソルを重ねると観測所名を参照できる。

次にクリックすると気象観測と天気予報を参照できる。

マップの切り替え:黒色「×」印の緑ボタンをクリックして拡大、「-」印の緑ボタンをクリックして縮小、緑色の三角印をクリックして隣りの地図に切り替え


METAR-TAF: